Time;durP1;ratioP1;P1;durP2;ratioP2;P2;SDS_P1;SDS_P2;PMS_P1;PMS_P2;Temp;Humidity;BMP_temperature;BMP_pressure;BME280_temperature;BME280_humidity;BME280_pressure;Samples;Min_cycle;Max_cycle;Signal;HPM_P1;HPM_P2
2023/12/03 00:00:00;;;;;;;16.50;2.47;;;;;;;15.72;40.69;92997.78;5063759;28;20077;-82
2023/12/03 00:02:26;;;;;;;17.20;2.22;;;;;;;15.73;40.71;93000.13;5064020;28;20028;-82
2023/12/03 00:04:53;;;;;;;21.80;2.47;;;;;;;15.70;40.54;92978.59;5063897;28;20311;-82
2023/12/03 00:07:21;;;;;;;24.92;2.75;;;;;;;15.72;41.21;92982.47;5063978;28;20032;-82
2023/12/03 00:09:46;;;;;;;20.52;2.97;;;;;;;15.68;41.25;92992.38;5063809;28;20085;-82
2023/12/03 00:12:12;;;;;;;19.08;3.17;;;;;;;15.61;41.49;92997.66;5063528;28;20021;-81
2023/12/03 00:14:38;;;;;;;16.00;2.92;;;;;;;15.60;41.49;92999.56;5063649;28;20021;-81
2023/12/03 00:17:04;;;;;;;21.88;3.08;;;;;;;15.57;41.96;93026.38;5063468;28;20027;-82
2023/12/03 00:19:29;;;;;;;20.33;2.88;;;;;;;15.55;41.77;93015.22;5063649;28;20029;-82
2023/12/03 00:21:55;;;;;;;24.50;3.40;;;;;;;15.52;42.18;93040.13;5062508;28;20029;-81
2023/12/03 00:24:21;;;;;;;17.17;2.80;;;;;;;15.56;42.51;93022.91;5062439;28;20059;-82
2023/12/03 00:26:47;;;;;;;15.93;2.45;;;;;;;15.55;42.31;93042.06;5063348;28;20120;-82
2023/12/03 00:29:13;;;;;;;25.55;2.55;;;;;;;15.57;42.06;93029.06;5063591;28;20020;-83
2023/12/03 00:31:38;;;;;;;20.35;4.47;;;;;;;15.54;42.55;93032.50;5063742;28;20334;-83
2023/12/03 00:34:05;;;;;;;19.35;3.22;;;;;;;15.50;43.24;93034.34;5063502;28;20283;-83
2023/12/03 00:36:30;;;;;;;20.92;3.40;;;;;;;15.42;42.73;93012.75;5063440;28;20052;-83
2023/12/03 00:38:56;;;;;;;22.00;2.42;;;;;;;15.49;42.41;93024.72;5062407;28;20029;-82
2023/12/03 00:41:21;;;;;;;14.65;2.45;;;;;;;15.52;42.55;93010.59;5063709;28;20025;-83
2023/12/03 00:43:48;;;;;;;25.48;3.88;;;;;;;15.50;42.47;93063.91;5063565;28;20024;-82
2023/12/03 00:46:17;;;;;;;14.73;3.05;;;;;;;15.49;42.81;93038.16;5062266;28;20017;-83
2023/12/03 00:48:42;;;;;;;14.63;2.58;;;;;;;15.50;42.56;93028.97;5063408;28;20020;-83
2023/12/03 00:51:08;;;;;;;22.08;2.20;;;;;;;15.48;42.64;93055.44;5063602;28;20047;-83
2023/12/03 00:53:33;;;;;;;16.67;2.63;;;;;;;15.54;42.62;93046.69;5067589;28;20048;-82
2023/12/03 00:55:59;;;;;;;19.75;3.28;;;;;;;15.49;42.82;93040.84;5067223;28;20292;-82
2023/12/03 00:58:24;;;;;;;16.45;5.13;;;;;;;15.52;42.95;93051.66;5066805;28;20024;-83
2023/12/03 01:00:50;;;;;;;20.88;2.35;;;;;;;15.53;43.31;93039.78;5065898;28;20066;-83
2023/12/03 01:03:15;;;;;;;17.65;2.72;;;;;;;15.54;43.26;93068.16;5067277;28;20104;-83
2023/12/03 01:05:41;;;;;;;19.10;3.35;;;;;;;15.52;43.41;93069.69;5067055;28;20035;-83
2023/12/03 01:08:06;;;;;;;14.90;2.42;;;;;;;15.50;43.29;93069.25;5067054;28;20029;-83
2023/12/03 01:10:32;;;;;;;20.33;2.50;;;;;;;15.44;43.66;93056.13;5067079;28;20021;-83
2023/12/03 01:12:57;;;;;;;14.45;2.33;;;;;;;15.46;43.48;93069.22;5065733;28;20075;-83
2023/12/03 01:15:23;;;;;;;14.27;3.25;;;;;;;15.50;43.58;93067.34;5067052;28;20047;-83
2023/12/03 01:17:48;;;;;;;20.70;2.72;;;;;;;15.46;43.72;93058.47;5067004;28;20021;-84
2023/12/03 01:20:14;;;;;;;13.50;3.50;;;;;;;15.45;43.34;93056.94;5066893;28;20033;-83
2023/12/03 01:22:39;;;;;;;21.40;3.47;;;;;;;15.38;44.08;93081.75;5066988;28;20020;-84
2023/12/03 01:25:05;;;;;;;21.30;3.08;;;;;;;15.39;44.16;93074.50;5066740;28;20421;-82
2023/12/03 01:27:30;;;;;;;17.67;2.67;;;;;;;15.45;43.54;93111.41;5065485;28;20024;-82
2023/12/03 01:29:56;;;;;;;20.98;4.45;;;;;;;15.49;43.84;93071.19;5066986;28;20073;-82
2023/12/03 01:32:21;;;;;;;13.07;2.80;;;;;;;15.55;43.41;93066.25;5067010;28;20100;-83
2023/12/03 01:34:47;;;;;;;17.48;2.47;;;;;;;15.49;44.18;93062.34;5066746;28;20045;-82
2023/12/03 01:37:12;;;;;;;20.48;3.50;;;;;;;15.50;43.69;93078.09;5066636;28;20366;-82
2023/12/03 01:39:38;;;;;;;14.48;2.90;;;;;;;15.48;44.19;93052.75;5066223;28;20311;-82
2023/12/03 01:42:03;;;;;;;19.95;2.88;;;;;;;15.48;43.88;93066.94;5065880;28;20073;-83
2023/12/03 01:44:29;;;;;;;20.30;2.58;;;;;;;15.46;43.72;93050.41;5065276;28;20029;-82
2023/12/03 01:46:57;;;;;;;32.05;2.80;;;;;;;15.49;44.02;93046.22;5066226;28;20025;-82
2023/12/03 01:49:23;;;;;;;13.00;2.05;;;;;;;15.48;44.01;93074.22;5065323;28;20116;-82
2023/12/03 01:51:49;;;;;;;15.50;2.03;;;;;;;15.47;43.70;93045.81;5066305;28;20319;-82
2023/12/03 01:54:15;;;;;;;16.65;2.28;;;;;;;15.49;43.56;93048.91;5066336;28;20286;-83
2023/12/03 01:56:40;;;;;;;15.80;3.42;;;;;;;15.55;43.01;93060.88;5065950;28;20071;-83
2023/12/03 01:59:06;;;;;;;16.38;2.70;;;;;;;15.57;43.46;93055.91;5064947;28;20028;-83
2023/12/03 02:01:32;;;;;;;21.50;2.58;;;;;;;15.50;43.96;93067.34;5066347;28;20028;-83
2023/12/03 02:03:57;;;;;;;17.80;3.35;;;;;;;15.53;44.01;93065.84;5065942;28;20082;-82
2023/12/03 02:06:24;;;;;;;15.50;2.97;;;;;;;15.54;44.07;93067.41;5066281;28;20096;-84
2023/12/03 02:08:49;;;;;;;15.30;2.72;;;;;;;15.52;44.06;93069.69;5066218;28;20020;-83
2023/12/03 02:11:15;;;;;;;14.23;2.42;;;;;;;15.49;43.30;93038.97;5066092;28;20122;-84
2023/12/03 02:13:42;;;;;;;27.27;3.28;;;;;;;15.51;43.61;93050.13;5066014;28;20020;-83
2023/12/03 02:16:08;;;;;;;16.35;2.60;;;;;;;15.55;43.23;93055.50;5066028;28;20029;-83
2023/12/03 02:18:34;;;;;;;14.93;3.10;;;;;;;15.59;43.36;93069.75;5065648;28;20020;-83
2023/12/03 02:20:59;;;;;;;12.55;2.22;;;;;;;15.55;43.55;93055.50;5065782;28;20040;-83
2023/12/03 02:23:29;;;;;;;28.80;2.95;;;;;;;15.57;43.25;93053.22;5064766;28;20021;-83
2023/12/03 02:25:54;;;;;;;14.15;2.72;;;;;;;15.59;43.36;93057.13;5065938;28;20219;-84
2023/12/03 02:28:19;;;;;;;10.18;2.63;;;;;;;15.55;43.50;93048.25;5065801;28;20025;-84
2023/12/03 02:30:45;;;;;;;23.60;2.53;;;;;;;15.56;43.44;93065.91;5065102;28;20272;-84
2023/12/03 02:33:11;;;;;;;21.45;2.20;;;;;;;15.54;43.46;93062.78;5065696;28;20259;-84
2023/12/03 02:35:36;;;;;;;15.20;2.60;;;;;;;15.55;43.58;93048.25;5065612;28;20238;-83
2023/12/03 02:38:02;;;;;;;17.35;2.92;;;;;;;15.59;43.47;93053.66;5065573;28;20254;-83
2023/12/03 02:40:32;;;;;;;18.88;3.17;;;;;;;15.60;43.56;93052.53;5065546;28;20307;-83
2023/12/03 02:42:57;;;;;;;21.52;2.95;;;;;;;15.64;43.58;93045.28;5064237;28;20115;-83
2023/12/03 02:45:23;;;;;;;19.70;3.72;;;;;;;15.60;43.54;93036.41;5065603;28;20021;-83
2023/12/03 02:47:48;;;;;;;16.73;2.35;;;;;;;15.56;43.71;93030.97;5065501;28;20135;-83
2023/12/03 02:50:14;;;;;;;20.13;2.47;;;;;;;15.55;43.58;93034.81;5065242;28;20025;-83
2023/12/03 02:52:40;;;;;;;21.42;2.47;;;;;;;15.56;43.92;93049.00;5065240;28;20025;-83
2023/12/03 02:55:06;;;;;;;22.95;3.15;;;;;;;15.51;43.80;93042.06;5065105;28;20051;-82
2023/12/03 02:57:31;;;;;;;12.05;2.05;;;;;;;15.50;43.88;93042.41;5065077;28;20044;-83
2023/12/03 02:59:57;;;;;;;17.13;2.47;;;;;;;15.48;44.20;93063.47;5064865;28;20088;-83
2023/12/03 03:02:22;;;;;;;24.58;4.38;;;;;;;15.47;44.68;93069.97;5065347;28;20032;-83
2023/12/03 03:04:48;;;;;;;24.73;3.30;;;;;;;15.41;44.65;93066.84;5064019;28;20050;-83
2023/12/03 03:07:13;;;;;;;18.35;3.67;;;;;;;15.39;44.96;93067.22;5065208;28;20224;-83
2023/12/03 03:09:39;;;;;;;14.30;2.20;;;;;;;15.36;44.92;93061.78;5064951;28;20308;-83
2023/12/03 03:12:04;;;;;;;20.83;2.83;;;;;;;15.34;45.06;93058.69;5063665;28;20017;-83
2023/12/03 03:14:30;;;;;;;21.48;3.70;;;;;;;15.35;45.16;93073.66;5063463;28;20127;-83
2023/12/03 03:16:55;;;;;;;19.25;2.28;;;;;;;15.34;45.63;93064.06;5063377;28;20032;-83
2023/12/03 03:19:21;;;;;;;16.33;2.40;;;;;;;15.33;45.34;93065.19;5064982;28;20096;-84
2023/12/03 03:21:46;;;;;;;18.67;2.80;;;;;;;15.30;45.66;93080.09;5064814;28;20241;-83
2023/12/03 03:24:12;;;;;;;20.05;2.67;;;;;;;15.27;45.93;93056.69;5064731;28;20048;-84
2023/12/03 03:26:39;;;;;;;17.35;2.67;;;;;;;15.23;46.17;93086.16;5064825;28;20052;-84
2023/12/03 03:29:06;;;;;;;19.98;2.28;;;;;;;15.27;45.99;93070.09;5064341;28;20025;-83
2023/12/03 03:31:32;;;;;;;21.05;2.55;;;;;;;15.22;46.24;93057.78;5064683;28;20070;-83
2023/12/03 03:33:57;;;;;;;19.42;2.88;;;;;;;15.20;46.14;93081.50;5064472;28;20028;-83
2023/12/03 03:36:22;;;;;;;13.50;1.98;;;;;;;15.16;46.04;93074.53;5064642;28;20025;-83
2023/12/03 03:38:49;;;;;;;26.00;3.53;;;;;;;15.14;46.58;93066.06;5063265;28;20032;-83
2023/12/03 03:41:14;;;;;;;16.13;1.98;;;;;;;15.14;46.38;93074.09;5064450;28;20040;-84
2023/12/03 03:43:40;;;;;;;18.75;2.17;;;;;;;15.17;46.28;93092.19;5064356;28;20323;-84
2023/12/03 03:46:06;;;;;;;23.30;3.97;;;;;;;15.21;46.38;93101.06;5064370;28;20196;-83
2023/12/03 03:48:31;;;;;;;15.02;2.90;;;;;;;15.21;46.39;93088.41;5064348;28;20037;-81
2023/12/03 03:50:57;;;;;;;18.27;3.40;;;;;;;15.23;46.41;93096.88;5064034;28;20092;-82
2023/12/03 03:53:22;;;;;;;18.73;3.40;;;;;;;15.20;46.87;93118.28;5064305;28;20035;-83
2023/12/03 03:55:48;;;;;;;18.35;2.40;;;;;;;15.24;46.75;93114.56;5063913;28;20309;-82
2023/12/03 03:58:13;;;;;;;21.17;2.53;;;;;;;15.25;46.45;93128.75;5062854;28;20131;-82
2023/12/03 04:00:39;;;;;;;29.02;2.95;;;;;;;15.31;46.18;93132.69;5063525;28;20067;-83
2023/12/03 04:03:06;;;;;;;21.13;2.42;;;;;;;15.28;46.00;93130.69;5063512;28;20072;-83
2023/12/03 04:05:31;;;;;;;22.27;2.85;;;;;;;15.29;46.74;93131.50;5064072;28;20211;-82
2023/12/03 04:07:56;;;;;;;15.65;2.88;;;;;;;15.24;46.43;93129.88;5064052;28;20190;-83
2023/12/03 04:10:22;;;;;;;16.40;2.60;;;;;;;15.29;46.70;93142.22;5062793;28;20021;-82
2023/12/03 04:12:48;;;;;;;26.98;3.10;;;;;;;15.29;46.54;93166.38;5063839;28;20196;-81
2023/12/03 04:15:14;;;;;;;23.55;2.42;;;;;;;15.30;46.37;93155.28;5064136;28;20251;-82
2023/12/03 04:17:39;;;;;;;14.00;2.83;;;;;;;15.24;46.54;93170.13;5064649;28;20016;-82
2023/12/03 04:20:06;;;;;;;20.60;3.05;;;;;;;15.26;46.19;93186.66;5064017;28;20285;-83
2023/12/03 04:22:32;;;;;;;20.92;3.50;;;;;;;15.28;47.23;93170.19;5064008;28;20092;-83
2023/12/03 04:24:57;;;;;;;23.05;3.92;;;;;;;15.06;48.63;93191.31;5063793;28;20266;-82
2023/12/03 04:27:23;;;;;;;21.88;3.05;;;;;;;14.75;49.23;93181.56;5062621;28;20029;-83
2023/12/03 04:29:48;;;;;;;23.83;3.50;;;;;;;14.52;50.09;93192.97;5063560;28;20307;-83
2023/12/03 04:32:14;;;;;;;15.02;2.60;;;;;;;14.53;50.31;93207.16;5063922;28;20033;-83
2023/12/03 04:34:41;;;;;;;17.73;2.92;;;;;;;14.44;50.64;93208.16;5063438;28;20042;-82
2023/12/03 04:37:06;;;;;;;15.48;3.28;;;;;;;14.35;50.85;93210.28;5063559;28;20029;-82
2023/12/03 04:39:32;;;;;;;22.73;4.28;;;;;;;14.21;51.35;93216.13;5063508;28;20029;-83
2023/12/03 04:41:57;;;;;;;25.35;3.45;;;;;;;14.11;51.77;93222.03;5063248;28;20035;-82
2023/12/03 04:44:23;;;;;;;18.63;2.90;;;;;;;14.01;52.17;93228.69;5063397;28;20092;-82
2023/12/03 04:46:48;;;;;;;20.90;3.65;;;;;;;13.97;52.54;93232.44;5062902;28;20033;-83
2023/12/03 04:49:14;;;;;;;27.10;4.38;;;;;;;13.96;52.80;93231.66;5063054;28;20060;-83
2023/12/03 04:51:39;;;;;;;14.20;2.75;;;;;;;13.91;53.21;93245.31;5063368;28;20025;-82
2023/12/03 04:54:05;;;;;;;17.10;2.33;;;;;;;13.90;53.50;93248.34;5063279;28;20040;-83
2023/12/03 04:56:30;;;;;;;32.83;3.15;;;;;;;13.77;54.23;93259.16;5063306;28;20044;-82
2023/12/03 04:58:56;;;;;;;23.38;3.25;;;;;;;13.74;54.43;93270.56;5063007;28;20025;-83
2023/12/03 05:01:21;;;;;;;23.05;4.80;;;;;;;13.60;55.32;93272.91;5063364;28;20017;-83
2023/12/03 05:03:47;;;;;;;18.60;2.90;;;;;;;13.57;56.05;93286.97;5063438;28;20009;-83
2023/12/03 05:06:13;;;;;;;13.27;2.65;;;;;;;13.26;57.63;93296.50;5063192;28;20025;-81
2023/12/03 05:08:39;;;;;;;21.95;3.00;;;;;;;12.91;60.20;93299.03;5062833;28;20021;-82
2023/12/03 05:11:05;;;;;;;21.38;2.75;;;;;;;12.50;64.07;93293.69;5062965;28;20029;-81
2023/12/03 05:13:31;;;;;;;19.55;2.70;;;;;;;12.08;66.55;93303.91;5062666;28;20021;-82
2023/12/03 05:15:57;;;;;;;13.75;2.35;;;;;;;11.77;69.04;93316.69;5062648;28;20044;-82
2023/12/03 05:18:22;;;;;;;12.23;2.65;;;;;;;11.45;69.02;93329.75;5062842;28;20029;-82
2023/12/03 05:20:49;;;;;;;19.52;2.50;;;;;;;11.27;70.40;93307.03;5062592;28;20017;-82
2023/12/03 05:23:14;;;;;;;20.15;2.45;;;;;;;11.04;71.42;93312.75;5062587;28;20066;-84
2023/12/03 05:25:40;;;;;;;24.85;2.53;;;;;;;10.98;72.42;93306.06;5062536;28;20017;-84
2023/12/03 05:28:06;;;;;;;11.45;2.90;;;;;;;10.98;73.97;93287.41;5062600;28;20020;-84
2023/12/03 05:30:31;;;;;;;19.92;2.55;;;;;;;10.95;74.96;93284.63;5062174;28;20101;-83
2023/12/03 05:32:57;;;;;;;17.52;2.72;;;;;;;10.91;75.36;93297.84;5061110;28;20084;-84
2023/12/03 05:35:23;;;;;;;15.48;3.45;;;;;;;10.91;76.04;93299.72;5062673;28;20100;-83
2023/12/03 05:37:48;;;;;;;22.88;2.70;;;;;;;10.93;76.49;93295.63;5062912;28;20025;-83
2023/12/03 05:40:14;;;;;;;26.98;3.95;;;;;;;10.91;76.64;93297.84;5066155;28;20134;-83
2023/12/03 05:42:40;;;;;;;15.30;2.40;;;;;;;10.96;75.80;93312.84;5066297;28;20024;-84
2023/12/03 05:45:06;;;;;;;18.77;2.85;;;;;;;11.00;75.83;93317.19;5066281;28;20378;-83
2023/12/03 05:47:31;;;;;;;15.18;2.85;;;;;;;11.14;76.03;93326.81;5065015;28;20025;-84
2023/12/03 05:50:00;;;;;;;22.00;3.55;;;;;;;11.24;76.06;93332.50;5066112;28;20240;-83
2023/12/03 05:52:25;;;;;;;18.00;4.53;;;;;;;11.36;76.38;93339.75;5066113;28;20020;-83
2023/12/03 05:54:51;;;;;;;15.25;3.08;;;;;;;11.46;76.17;93349.22;5066195;28;20046;-83
2023/12/03 05:57:16;;;;;;;21.08;3.97;;;;;;;11.56;75.14;93356.00;5065901;28;20060;-83
2023/12/03 05:59:41;;;;;;;20.95;3.60;;;;;;;11.61;74.81;93355.81;5065732;28;20017;-83
2023/12/03 06:02:07;;;;;;;24.90;4.22;;;;;;;11.71;74.47;93359.94;5064593;28;20196;-84
2023/12/03 06:04:32;;;;;;;15.32;3.45;;;;;;;11.81;74.15;93362.19;5065737;28;20021;-82
2023/12/03 06:06:58;;;;;;;21.60;3.45;;;;;;;11.87;73.99;93368.09;5065474;28;20021;-82
2023/12/03 06:09:23;;;;;;;24.65;3.80;;;;;;;11.87;73.38;93368.09;5065672;28;20020;-82
2023/12/03 06:11:49;;;;;;;20.00;3.58;;;;;;;11.94;73.70;93376.34;5065736;28;20031;-82
2023/12/03 06:14:14;;;;;;;26.70;4.53;;;;;;;11.95;73.98;93380.59;5065560;28;20044;-82
2023/12/03 06:16:40;;;;;;;23.05;3.90;;;;;;;12.00;74.59;93380.34;5065059;28;20055;-82
2023/12/03 06:19:06;;;;;;;22.83;8.85;;;;;;;12.06;75.18;93372.91;5064115;28;20021;-83
2023/12/03 06:21:31;;;;;;;17.38;4.13;;;;;;;12.08;74.72;93376.81;5064423;28;20040;-82
2023/12/03 06:23:57;;;;;;;19.08;3.55;;;;;;;12.08;74.71;93386.72;5065651;28;20104;-82
2023/12/03 06:26:22;;;;;;;19.42;4.80;;;;;;;12.15;75.31;93385.06;5065599;28;20017;-83
2023/12/03 06:28:47;;;;;;;17.13;3.60;;;;;;;12.18;75.27;93389.72;5065348;28;20339;-82
2023/12/03 06:31:13;;;;;;;17.33;4.35;;;;;;;12.22;75.50;93393.28;5065086;28;20366;-82
2023/12/03 06:33:38;;;;;;;19.80;5.55;;;;;;;12.26;75.73;93396.06;5065461;28;20051;-82
2023/12/03 06:36:04;;;;;;;10.48;2.78;;;;;;;12.28;76.01;93401.09;5065222;28;20020;-83
2023/12/03 06:38:30;;;;;;;19.17;3.95;;;;;;;12.31;75.84;93408.41;5065205;28;20033;-82
2023/12/03 06:40:55;;;;;;;20.55;4.30;;;;;;;12.36;75.49;93410.88;5064381;28;20025;-82
2023/12/03 06:43:21;;;;;;;23.63;5.28;;;;;;;12.43;76.83;93417.19;5064758;28;20021;-82
2023/12/03 06:45:46;;;;;;;22.60;7.22;;;;;;;12.42;76.89;93414.88;5065085;28;20024;-82
2023/12/03 06:48:12;;;;;;;19.75;4.63;;;;;;;12.41;77.11;93421.31;5064638;28;20028;-82
2023/12/03 06:50:37;;;;;;;21.88;5.32;;;;;;;12.43;78.22;93432.47;5063996;28;20017;-82
2023/12/03 06:53:03;;;;;;;21.45;4.70;;;;;;;12.39;78.69;93423.56;5064623;28;20055;-83
2023/12/03 06:55:29;;;;;;;27.33;3.78;;;;;;;12.24;78.86;93436.47;5064559;28;20096;-82
2023/12/03 06:57:55;;;;;;;21.98;5.70;;;;;;;12.17;79.72;93436.25;5064821;28;20052;-83
2023/12/03 07:00:21;;;;;;;17.75;3.75;;;;;;;12.17;80.49;93432.78;5064828;28;20028;-83
2023/12/03 07:02:47;;;;;;;12.65;3.63;;;;;;;12.21;80.83;93442.50;5064187;28;20203;-83
2023/12/03 07:05:12;;;;;;;21.13;4.15;;;;;;;12.22;80.64;93444.03;5063146;28;20038;-83
2023/12/03 07:07:38;;;;;;;22.52;4.57;;;;;;;12.23;79.93;93444.81;5064431;28;20204;-83
2023/12/03 07:10:04;;;;;;;18.30;2.85;;;;;;;12.20;78.71;93456.94;5063402;28;20067;-82
2023/12/03 07:12:30;;;;;;;22.15;3.92;;;;;;;12.20;78.73;93456.19;5063948;28;20024;-83
2023/12/03 07:14:56;;;;;;;19.02;3.70;;;;;;;12.12;78.27;93455.16;5063856;28;20035;-82
2023/12/03 07:17:21;;;;;;;14.77;3.30;;;;;;;12.04;79.46;93453.38;5064104;28;20311;-83
2023/12/03 07:19:47;;;;;;;24.05;3.85;;;;;;;11.96;80.69;93454.25;5063771;28;20045;-83
2023/12/03 07:22:13;;;;;;;24.65;3.10;;;;;;;11.87;81.37;93458.88;5063860;28;20032;-83
2023/12/03 07:24:39;;;;;;;19.77;3.45;;;;;;;11.80;82.33;93454.06;5063635;28;20319;-83
2023/12/03 07:27:05;;;;;;;22.63;3.38;;;;;;;11.78;83.42;93457.06;5063544;28;20097;-83
2023/12/03 07:29:31;;;;;;;25.35;3.92;;;;;;;11.86;83.94;93468.75;5063811;28;20040;-82
2023/12/03 07:31:57;;;;;;;18.05;4.95;;;;;;;11.99;84.55;93467.72;5063354;28;20031;-83
2023/12/03 07:34:22;;;;;;;26.55;5.43;;;;;;;11.97;84.79;93482.53;5063771;28;20028;-82
2023/12/03 07:36:48;;;;;;;20.23;5.88;;;;;;;12.04;84.50;93477.41;5063309;28;20100;-83
2023/12/03 07:39:13;;;;;;;22.10;5.25;;;;;;;12.08;84.84;93480.22;5063146;28;20211;-83
2023/12/03 07:41:39;;;;;;;23.98;6.95;;;;;;;12.02;84.82;93485.75;5063344;28;20029;-83
2023/12/03 07:44:04;;;;;;;20.90;5.70;;;;;;;12.06;84.45;93488.53;5062021;28;20020;-83
2023/12/03 07:46:32;;;;;;;36.13;6.13;;;;;;;12.11;83.90;93507.03;5063300;28;20188;-83
2023/12/03 07:48:58;;;;;;;19.27;4.78;;;;;;;12.07;83.59;93506.16;5061936;28;20024;-82
2023/12/03 07:51:23;;;;;;;25.42;4.70;;;;;;;11.83;83.69;93512.94;5063407;28;20017;-83
2023/12/03 07:53:49;;;;;;;16.42;3.50;;;;;;;11.59;84.29;93524.28;5062015;28;20339;-83
2023/12/03 07:56:14;;;;;;;16.13;5.03;;;;;;;11.43;85.86;93534.78;5061847;28;20228;-83
2023/12/03 07:58:40;;;;;;;15.57;2.90;;;;;;;11.10;86.19;93525.94;5062140;28;20040;-82
2023/12/03 08:01:06;;;;;;;15.43;3.70;;;;;;;10.88;88.02;93522.44;5062651;28;20247;-82
2023/12/03 08:03:31;;;;;;;24.20;4.55;;;;;;;10.80;88.70;93547.25;5062900;28;20043;-82
2023/12/03 08:05:58;;;;;;;15.82;4.00;;;;;;;10.70;89.40;93552.97;5063138;28;20021;-82
2023/12/03 08:08:24;;;;;;;27.98;4.60;;;;;;;10.57;89.92;93552.84;5063109;28;20016;-82
2023/12/03 08:10:49;;;;;;;17.30;4.25;;;;;;;10.37;91.39;93562.31;5063115;28;20261;-82
2023/12/03 08:13:15;;;;;;;17.75;3.88;;;;;;;10.29;92.69;93570.31;5062535;28;20092;-82
2023/12/03 08:15:40;;;;;;;13.23;3.22;;;;;;;10.11;93.10;93565.03;5062847;28;20334;-82
2023/12/03 08:18:06;;;;;;;8.88;3.95;;;;;;;9.99;93.41;93563.03;5062814;28;20025;-82
2023/12/03 08:20:31;;;;;;;19.63;4.45;;;;;;;9.86;94.13;93574.63;5062706;28;20088;-82
2023/12/03 08:22:57;;;;;;;11.30;4.50;;;;;;;9.59;93.37;93589.06;5062668;28;20044;-82
2023/12/03 08:25:22;;;;;;;14.80;4.13;;;;;;;9.41;92.28;93589.03;5062908;28;20092;-82
2023/12/03 08:27:48;;;;;;;8.70;4.57;;;;;;;9.24;93.50;93594.34;5061513;28;20025;-82
2023/12/03 08:30:13;;;;;;;12.15;4.68;;;;;;;9.21;94.96;93584.31;5061368;28;20096;-82
2023/12/03 08:32:39;;;;;;;15.38;4.75;;;;;;;9.06;95.16;93585.53;5062486;28;20335;-82
2023/12/03 08:35:05;;;;;;;17.90;6.60;;;;;;;9.00;96.50;93584.91;5062617;28;20389;-83
2023/12/03 08:37:31;;;;;;;13.98;6.88;;;;;;;8.87;96.59;93600.97;5062563;28;20037;-82
2023/12/03 08:39:57;;;;;;;12.30;5.68;;;;;;;8.70;96.85;93599.03;5061262;28;20059;-82
2023/12/03 08:42:22;;;;;;;18.58;6.20;;;;;;;8.61;95.61;93594.47;5062770;28;20025;-82
2023/12/03 08:44:48;;;;;;;15.00;6.70;;;;;;;8.52;95.37;93590.19;5062792;28;20025;-84
2023/12/03 08:47:13;;;;;;;11.65;6.68;;;;;;;8.42;96.35;93604.53;5062498;28;20246;-83
2023/12/03 08:49:40;;;;;;;13.45;6.82;;;;;;;8.22;95.33;93606.59;5062563;28;20339;-83
2023/12/03 08:52:07;;;;;;;11.82;6.00;;;;;;;8.08;94.73;93605.88;5062448;28;20096;-83
2023/12/03 08:54:34;;;;;;;14.50;7.50;;;;;;;7.81;93.66;93602.25;5062878;28;20032;-83
2023/12/03 08:56:59;;;;;;;17.02;8.05;;;;;;;7.61;93.62;93618.63;5061115;28;20064;-83
2023/12/03 08:59:25;;;;;;;16.02;7.68;;;;;;;7.44;93.04;93608.69;5062605;28;20028;-83
2023/12/03 09:01:50;;;;;;;13.77;7.43;;;;;;;7.24;93.40;93633.75;5062608;28;20024;-82
2023/12/03 09:04:16;;;;;;;14.65;7.82;;;;;;;7.09;93.22;93624.25;5062414;28;20196;-82
2023/12/03 09:06:42;;;;;;;15.98;7.10;;;;;;;7.00;93.64;93632.13;5062477;28;20219;-81
2023/12/03 09:09:08;;;;;;;13.82;7.38;;;;;;;6.94;94.17;93635.97;5062058;28;20013;-82
2023/12/03 09:11:35;;;;;;;16.98;6.68;;;;;;;6.80;93.11;93632.53;5062252;28;20139;-82
2023/12/03 09:14:01;;;;;;;14.98;7.05;;;;;;;6.63;92.70;93643.69;5064713;28;20176;-82
2023/12/03 09:16:27;;;;;;;11.85;7.13;;;;;;;6.58;93.31;93644.56;5066450;28;20024;-81
2023/12/03 09:18:52;;;;;;;11.43;7.22;;;;;;;6.52;94.53;93642.31;5066183;28;20059;-82
2023/12/03 09:21:18;;;;;;;13.45;7.45;;;;;;;6.44;95.47;93662.28;5066090;28;20315;-82
2023/12/03 09:23:43;;;;;;;15.77;7.28;;;;;;;6.25;95.63;93657.06;5066189;28;20017;-82
2023/12/03 09:26:09;;;;;;;11.82;7.03;;;;;;;6.13;96.55;93656.75;5065104;28;20028;-82
2023/12/03 09:28:34;;;;;;;12.88;6.90;;;;;;;6.09;97.33;93655.75;5065979;28;20200;-82
2023/12/03 09:31:00;;;;;;;14.82;7.10;;;;;;;5.99;97.26;93659.34;5065821;28;20009;-82
2023/12/03 09:33:27;;;;;;;15.20;7.32;;;;;;;5.91;98.01;93660.75;5066146;28;20017;-82
2023/12/03 09:35:53;;;;;;;15.60;7.40;;;;;;;5.92;98.82;93664.16;5065021;28;20020;-82
2023/12/03 09:38:19;;;;;;;16.63;7.57;;;;;;;5.91;99.18;93659.97;5066154;28;20017;-83
2023/12/03 09:40:47;;;;;;;11.57;6.60;;;;;;;5.71;98.67;93661.81;5065555;28;20272;-83
2023/12/03 09:43:17;;;;;;;10.98;6.40;;;;;;;5.77;98.50;93663.31;5065785;28;20032;-82
2023/12/03 09:45:45;;;;;;;10.95;6.63;;;;;;;5.73;98.36;93654.38;5065671;28;20092;-82
2023/12/03 09:48:12;;;;;;;13.85;5.93;;;;;;;5.65;98.70;93662.97;5065650;28;20163;-83
2023/12/03 09:50:38;;;;;;;11.82;5.80;;;;;;;5.51;98.04;93681.41;5065485;28;20075;-82
2023/12/03 09:53:07;;;;;;;13.10;7.38;;;;;;;5.54;98.06;93685.34;5064485;28;20027;-82
2023/12/03 09:55:34;;;;;;;18.95;8.40;;;;;;;5.55;97.83;93676.34;5065787;28;20069;-82
2023/12/03 09:58:01;;;;;;;14.57;7.70;;;;;;;5.57;97.09;93672.31;5065648;28;20094;-81
2023/12/03 10:00:29;;;;;;;18.77;8.07;;;;;;;5.54;97.87;93669.50;5065343;28;20044;-82
2023/12/03 10:02:54;;;;;;;20.63;8.48;;;;;;;5.59;98.57;93674.69;5065435;28;20028;-82
2023/12/03 10:05:21;;;;;;;13.32;7.18;;;;;;;5.42;98.25;93693.69;5065709;28;20048;-82
2023/12/03 10:07:47;;;;;;;9.65;5.78;;;;;;;5.20;97.41;93684.44;5065746;28;20219;-82
2023/12/03 10:10:17;;;;;;;13.43;7.22;;;;;;;5.00;98.05;93692.59;5065413;28;20025;-82
2023/12/03 10:12:42;;;;;;;17.70;7.60;;;;;;;4.93;98.90;93716.72;5065377;28;20027;-83
2023/12/03 10:15:12;;;;;;;12.52;6.55;;;;;;;4.87;98.91;93701.22;5065221;28;20025;-82
2023/12/03 10:17:39;;;;;;;11.43;5.13;;;;;;;4.85;99.00;93714.69;5065139;28;20027;-82
2023/12/03 10:20:26;;;;;;;8.65;5.50;;;;;;;4.76;98.69;93711.09;5065081;28;20041;-82
2023/12/03 10:22:55;;;;;;;8.57;5.00;;;;;;;4.70;98.57;93728.03;5064039;28;20088;-83
2023/12/03 10:25:27;;;;;;;14.38;6.30;;;;;;;4.71;98.73;93708.50;5064060;28;20043;-82
2023/12/03 10:27:58;;;;;;;13.05;6.07;;;;;;;4.73;99.42;93714.28;5065298;28;20067;-83
2023/12/03 10:30:24;;;;;;;12.07;6.43;;;;;;;4.62;99.11;93711.75;5065189;28;20035;-82
2023/12/03 10:32:50;;;;;;;11.27;5.25;;;;;;;4.61;98.66;93712.03;5064154;28;20027;-83
2023/12/03 10:35:15;;;;;;;11.27;5.53;;;;;;;4.62;98.56;93711.75;5063921;28;20214;-82
2023/12/03 10:37:41;;;;;;;8.20;5.13;;;;;;;4.58;97.91;93716.03;5064878;28;20033;-82
2023/12/03 10:40:11;;;;;;;15.52;5.70;;;;;;;4.55;96.86;93713.91;5064493;28;20223;-82
2023/12/03 10:42:39;;;;;;;8.60;5.32;;;;;;;4.50;97.08;93726.38;5063396;28;20036;-82
2023/12/03 10:45:09;;;;;;;9.48;5.03;;;;;;;4.48;97.78;93725.88;5064639;28;20031;-82
2023/12/03 10:47:36;;;;;;;18.20;5.72;;;;;;;4.49;96.23;93740.66;5064564;28;20069;-82
2023/12/03 10:50:05;;;;;;;10.35;6.13;;;;;;;4.40;95.62;93741.25;5063644;28;20021;-83
2023/12/03 10:52:32;;;;;;;12.93;6.57;;;;;;;4.34;96.88;93747.63;5064495;28;20032;-82
2023/12/03 10:54:57;;;;;;;14.18;6.70;;;;;;;4.32;97.09;93743.69;5064406;28;20303;-82
2023/12/03 10:57:29;;;;;;;14.20;6.18;;;;;;;4.34;96.79;93745.00;5064611;28;20052;-82
2023/12/03 11:00:10;;;;;;;11.00;5.22;;;;;;;4.31;95.78;93736.84;5064334;28;20021;-82
2023/12/03 11:02:43;;;;;;;14.80;6.50;;;;;;;4.27;95.45;93733.16;5064269;28;20021;-82
2023/12/03 11:05:15;;;;;;;12.52;6.63;;;;;;;4.25;94.93;93732.66;5064124;28;20017;-82
2023/12/03 11:07:42;;;;;;;15.75;6.53;;;;;;;4.11;95.49;93745.69;5064195;28;20017;-82
2023/12/03 11:10:10;;;;;;;17.30;7.15;;;;;;;4.17;94.99;93732.22;5064088;28;20059;-82
2023/12/03 11:12:35;;;;;;;13.02;7.30;;;;;;;4.20;95.95;93731.63;5064128;28;20024;-82
2023/12/03 11:15:02;;;;;;;15.25;7.53;;;;;;;4.20;96.00;93736.91;5064023;28;20021;-82
2023/12/03 11:17:35;;;;;;;17.65;7.50;;;;;;;4.18;96.58;93722.44;5063017;28;20025;-82
2023/12/03 11:20:09;;;;;;;20.20;9.30;;;;;;;4.08;97.27;93728.56;5063852;28;20021;-82